Time,TemperatureF,DewpointF,PressureIn,WindDirection,WindDirectionDegrees,WindSpeedMPH,WindSpeedGustMPH,Humidity,HourlyPrecipIn,Conditions,Clouds,dailyrainin,SoftwareType,DateUTC
2013-07-02 00:43:00,70.0,-99.9,-100.00,North,-999,-999.0,-999.0,-999,-99.99,,,-99.99,,2013-07-02 06:43:00,
2013-07-02 00:53:00,70.0,-99.9,-100.00,North,-999,-999.0,-999.0,-999,-99.99,,,-99.99,,2013-07-02 06:53:00,
2013-07-02 01:00:00,69.0,-99.9,-100.00,North,-999,4.0,7.0,61,-99.99,,,-99.99,,2013-07-02 07:00:00,
2013-07-02 01:01:00,70.0,-99.9,-100.00,North,-999,-999.0,-999.0,-999,-99.99,,,-99.99,,2013-07-02 07:01:00,
2013-07-02 01:22:00,-999.0,-99.9,-100.00,North,-999,4.0,7.0,61,-99.99,,,-99.99,,2013-07-02 07:22:00,
2013-07-02 01:44:00,69.0,-99.9,-100.00,North,-999,4.0,7.0,61,-99.99,,,-99.99,,2013-07-02 07:44:00,
2013-07-02 01:53:00,69.0,-99.9,-100.00,North,-999,4.0,7.0,61,-99.99,,,-99.99,,2013-07-02 07:53:00,
2013-07-02 02:00:00,68.0,-99.9,-100.00,North,-999,3.0,6.0,64,-99.99,,,-99.99,,2013-07-02 08:00:00,
2013-07-02 02:44:00,68.0,-99.9,-100.00,North,-999,3.0,6.0,64,-99.99,,,-99.99,,2013-07-02 08:44:00,
2013-07-02 02:53:00,68.0,-99.9,-100.00,North,-999,3.0,6.0,64,-99.99,,,-99.99,,2013-07-02 08:53:00,
2013-07-02 03:00:00,65.0,-99.9,-100.00,North,-999,2.0,5.0,72,-99.99,,,-99.99,,2013-07-02 09:00:00,
2013-07-02 03:43:00,65.0,-99.9,-100.00,North,-999,2.0,5.0,72,-99.99,,,-99.99,,2013-07-02 09:43:00,
2013-07-02 03:52:00,65.0,-99.9,-100.00,North,-999,2.0,5.0,72,-99.99,,,-99.99,,2013-07-02 09:52:00,
2013-07-02 04:00:00,65.0,-99.9,-100.00,North,-999,1.0,3.0,74,-99.99,,,-99.99,,2013-07-02 10:00:00,
2013-07-02 04:44:00,65.0,-99.9,-100.00,North,-999,1.0,3.0,74,-99.99,,,-99.99,,2013-07-02 10:44:00,
2013-07-02 04:52:00,65.0,-99.9,-100.00,North,-999,1.0,3.0,74,-99.99,,,-99.99,,2013-07-02 10:52:00,
2013-07-02 05:00:00,-999.0,-99.9,-100.00,North,-999,1.0,3.0,85,-99.99,,,-99.99,,2013-07-02 11:00:00,
2013-07-02 05:33:00,-999.0,-99.9,-100.00,North,-999,1.0,3.0,85,-99.99,,,-99.99,,2013-07-02 11:33:00,
2013-07-02 05:42:00,-999.0,-99.9,-100.00,North,-999,1.0,3.0,85,-99.99,,,-99.99,,2013-07-02 11:42:00,
2013-07-02 05:52:00,-999.0,-99.9,-100.00,North,-999,1.0,3.0,85,-99.99,,,-99.99,,2013-07-02 11:52:00,
2013-07-02 06:00:00,62.0,-99.9,-100.00,North,-999,2.0,4.0,84,-99.99,,,-99.99,,2013-07-02 12:00:00,
2013-07-02 06:23:00,-999.0,-99.9,-100.00,North,-999,2.0,4.0,84,-99.99,,,-99.99,,2013-07-02 12:23:00,
2013-07-02 06:43:00,62.0,-99.9,-100.00,North,-999,2.0,4.0,84,-99.99,,,-99.99,,2013-07-02 12:43:00,
2013-07-02 06:52:00,62.0,-99.9,-100.00,North,-999,2.0,4.0,84,-99.99,,,-99.99,,2013-07-02 12:52:00,
2013-07-02 07:00:00,65.0,-99.9,-100.00,North,-999,1.0,5.0,81,-99.99,,,-99.99,,2013-07-02 13:00:00,
2013-07-02 07:22:00,-999.0,-99.9,-100.00,North,-999,1.0,5.0,81,-99.99,,,-99.99,,2013-07-02 13:22:00,
2013-07-02 07:43:00,65.0,-99.9,-100.00,North,-999,1.0,5.0,81,-99.99,,,-99.99,,2013-07-02 13:43:00,
2013-07-02 07:52:00,65.0,-99.9,-100.00,North,-999,1.0,5.0,81,-99.99,,,-99.99,,2013-07-02 13:52:00,
2013-07-02 08:00:00,71.0,-99.9,-100.00,North,-999,6.0,11.0,55,-99.99,,,-99.99,,2013-07-02 14:00:00,
2013-07-02 08:22:00,-999.0,-99.9,-100.00,North,-999,6.0,11.0,55,-99.99,,,-99.99,,2013-07-02 14:22:00,
2013-07-02 08:43:00,71.0,-99.9,-100.00,North,-999,6.0,11.0,55,-99.99,,,-99.99,,2013-07-02 14:43:00,
2013-07-02 08:53:00,71.0,-99.9,-100.00,North,-999,6.0,11.0,55,-99.99,,,-99.99,,2013-07-02 14:53:00,
2013-07-02 09:00:00,-999.0,-99.9,-100.00,North,-999,5.0,10.0,50,-99.99,,,-99.99,,2013-07-02 15:00:00,
2013-07-02 09:33:00,-999.0,-99.9,-100.00,North,-999,5.0,10.0,50,-99.99,,,-99.99,,2013-07-02 15:33:00,
2013-07-02 09:44:00,-999.0,-99.9,-100.00,North,-999,5.0,10.0,50,-99.99,,,-99.99,,2013-07-02 15:44:00,
2013-07-02 09:53:00,-999.0,-99.9,-100.00,North,-999,5.0,10.0,50,-99.99,,,-99.99,,2013-07-02 15:53:00,
2013-07-02 10:00:00,74.0,-99.9,-100.00,North,-999,5.0,10.0,45,-99.99,,,-99.99,,2013-07-02 16:00:00,
2013-07-02 10:43:00,74.0,-99.9,-100.00,North,-999,5.0,10.0,45,-99.99,,,-99.99,,2013-07-02 16:43:00,
2013-07-02 10:53:00,74.0,-99.9,-100.00,North,-999,5.0,10.0,45,-99.99,,,-99.99,,2013-07-02 16:53:00,
2013-07-02 11:00:00,77.0,-99.9,-100.00,North,-999,4.0,8.0,40,-99.99,,,-99.99,,2013-07-02 17:00:00,
2013-07-02 11:22:00,-999.0,-99.9,-100.00,North,-999,4.0,8.0,40,-99.99,,,-99.99,,2013-07-02 17:22:00,
2013-07-02 11:43:00,77.0,-99.9,-100.00,North,-999,4.0,8.0,40,-99.99,,,-99.99,,2013-07-02 17:43:00,
2013-07-02 11:53:00,77.0,-99.9,-100.00,North,-999,4.0,8.0,40,-99.99,,,-99.99,,2013-07-02 17:53:00,
2013-07-02 12:00:00,79.0,-99.9,-100.00,North,-999,5.0,12.0,36,-99.99,,,-99.99,,2013-07-02 18:00:00,
2013-07-02 12:43:00,79.0,-99.9,-100.00,North,-999,5.0,12.0,36,-99.99,,,-99.99,,2013-07-02 18:43:00,
2013-07-02 12:53:00,79.0,-99.9,-100.00,North,-999,5.0,12.0,36,-99.99,,,-99.99,,2013-07-02 18:53:00,
2013-07-02 13:00:00,81.0,-99.9,-100.00,North,-999,5.0,11.0,34,-99.99,,,-99.99,,2013-07-02 19:00:00,
2013-07-02 13:22:00,-999.0,-99.9,-100.00,North,-999,5.0,11.0,34,-99.99,,,-99.99,,2013-07-02 19:22:00,
2013-07-02 13:43:00,81.0,-99.9,-100.00,North,-999,5.0,11.0,34,-99.99,,,-99.99,,2013-07-02 19:43:00,
2013-07-02 13:53:00,81.0,-99.9,-100.00,North,-999,5.0,11.0,34,-99.99,,,-99.99,,2013-07-02 19:53:00,
2013-07-02 14:00:00,82.0,-99.9,-100.00,North,-999,4.0,10.0,30,-99.99,,,-99.99,,2013-07-02 20:00:00,
2013-07-02 14:43:00,82.0,-99.9,-100.00,North,-999,4.0,10.0,30,-99.99,,,-99.99,,2013-07-02 20:43:00,
2013-07-02 14:52:00,82.0,-99.9,-100.00,North,-999,4.0,10.0,30,-99.99,,,-99.99,,2013-07-02 20:52:00,
2013-07-02 15:00:00,86.0,-99.9,-100.00,North,-999,4.0,13.0,29,-99.99,,,-99.99,,2013-07-02 21:00:00,
2013-07-02 15:44:00,86.0,-99.9,-100.00,North,-999,4.0,13.0,29,-99.99,,,-99.99,,2013-07-02 21:44:00,
2013-07-02 15:52:00,86.0,-99.9,-100.00,North,-999,4.0,13.0,29,-99.99,,,-99.99,,2013-07-02 21:52:00,
2013-07-02 16:00:00,85.0,-99.9,-100.00,North,-999,6.0,13.0,25,-99.99,,,-99.99,,2013-07-02 22:00:00,
2013-07-02 16:43:00,85.0,-99.9,-100.00,North,-999,6.0,13.0,25,-99.99,,,-99.99,,2013-07-02 22:43:00,
2013-07-02 16:53:00,85.0,-99.9,-100.00,North,-999,6.0,13.0,25,-99.99,,,-99.99,,2013-07-02 22:53:00,
2013-07-02 17:00:00,85.0,-99.9,-100.00,North,-999,6.0,14.0,27,-99.99,,,-99.99,,2013-07-02 23:00:00,
2013-07-02 17:44:00,85.0,-99.9,-100.00,North,-999,6.0,14.0,27,-99.99,,,-99.99,,2013-07-02 23:44:00,
2013-07-02 17:52:00,85.0,-99.9,-100.00,North,-999,6.0,14.0,27,-99.99,,,-99.99,,2013-07-02 23:52:00,
2013-07-02 18:00:00,84.0,-99.9,-100.00,North,-999,8.0,13.0,27,-99.99,,,-99.99,,2013-07-03 00:00:00,
2013-07-02 18:44:00,84.0,-99.9,-100.00,North,-999,8.0,13.0,27,-99.99,,,-99.99,,2013-07-03 00:44:00,
2013-07-02 18:52:00,84.0,-99.9,-100.00,North,-999,8.0,13.0,27,-99.99,,,-99.99,,2013-07-03 00:52:00,
2013-07-02 19:00:00,83.0,-99.9,-100.00,North,-999,7.0,12.0,26,-99.99,,,-99.99,,2013-07-03 01:00:00,
2013-07-02 19:22:00,-999.0,-99.9,-100.00,North,-999,7.0,12.0,26,-99.99,,,-99.99,,2013-07-03 01:22:00,
2013-07-02 19:43:00,83.0,-99.9,-100.00,North,-999,7.0,12.0,26,-99.99,,,-99.99,,2013-07-03 01:43:00,
2013-07-02 20:00:00,82.0,-99.9,-100.00,North,-999,7.0,11.0,26,-99.99,,,-99.99,,2013-07-03 02:00:00,
2013-07-02 20:30:00,-999.0,-99.9,-100.00,North,-999,7.0,11.0,26,-99.99,,,-99.99,,2013-07-03 02:30:00,
2013-07-02 21:00:00,-999.0,-99.9,-100.00,North,-999,9.0,24.0,68,-99.99,,,-99.99,,2013-07-03 03:00:00,
2013-07-02 21:36:00,-999.0,-99.9,-100.00,North,-999,9.0,24.0,68,-99.99,,,-99.99,,2013-07-03 03:36:00,
2013-07-02 21:49:00,-999.0,-99.9,-100.00,North,-999,9.0,24.0,68,-99.99,,,-99.99,,2013-07-03 03:49:00,
2013-07-02 21:59:00,-999.0,-99.9,-100.00,North,-999,9.0,24.0,68,-99.99,,,-99.99,,2013-07-03 03:59:00,
2013-07-02 22:00:00,-999.0,-99.9,-100.00,North,-999,15.0,22.0,78,-99.99,,,-99.99,,2013-07-03 04:00:00,
2013-07-02 22:34:00,-999.0,-99.9,-100.00,North,-999,15.0,22.0,78,-99.99,,,-99.99,,2013-07-03 04:34:00,
2013-07-02 22:43:00,-999.0,-99.9,-100.00,North,-999,15.0,22.0,78,-99.99,,,-99.99,,2013-07-03 04:43:00,
2013-07-02 22:53:00,-999.0,-99.9,-100.00,North,-999,15.0,22.0,78,-99.99,,,-99.99,,2013-07-03 04:53:00,
2013-07-02 23:00:00,65.0,-99.9,-100.00,North,-999,12.0,25.0,77,-99.99,,,-99.99,,2013-07-03 05:00:00,
2013-07-02 23:23:00,-999.0,-99.9,-100.00,North,-999,12.0,25.0,77,-99.99,,,-99.99,,2013-07-03 05:23:00,
2013-07-02 23:49:00,65.0,-99.9,-100.00,North,-999,12.0,25.0,77,-99.99,,,-99.99,,2013-07-03 05:49:00,